Compton, AR (72624)

12:48 PM CDT on July 30, 2014 (GMT -0500)
Boone County (KHRO) Elev 1365 ft | 36.26 °N, 93.15 °W | Change Station

Current weather conditions updated 5 minutes ago

Heavy Rain
Heavy Rain Mist
68 °F
Feels Like 68 °F
N
0
Wind Variable Wind from North

Today is forecast to be Much Cooler than yesterday. Thunderstorms.

Today
High -- | Low -- °F
--% Chance of Precip.
Yesterday
High -- | Low -- °F
Precip. -- in
6:18 AM 8:19 PM
Waxing Crescent, 13% visible
Pressure 30.12 in
Visibility 1.5 miles
Clouds Mostly Cloudy 1900 ft
Overcast 2500 ft
Dew Point 67 °F
Humidity 96%
Rainfall 0.01 in
Snow Depth Not available.
UV 4 out of 12
Pollen 5.30 out of 12
Air Quality Not available.
Flu Activity Not available.
SPECI KHRO 301743Z AUTO 00000KT 1 1/2SM +RA BR BKN019 OVC025 20/19 A3012 RMK AO2 RAE07B24 P0007 T02000194

More Conditions Fewer Conditions

Pressure 30.12 in
Visibility 1.5 miles
Clouds Mostly Cloudy 1900 ft
Overcast 2500 ft
Dew Point 67 °F
Humidity 96%
Rainfall 0.01 in
Snow Depth Not available.
UV 4 out of 12
Pollen 5.30 out of 12
Air Quality Not available.
Flu Activity Not available.
SPECI KHRO 301743Z AUTO 00000KT 1 1/2SM +RA BR BKN019 OVC025 20/19 A3012 RMK AO2 RAE07B24 P0007 T02000194

More Conditions Fewer Conditions

10-Day Weather Forecast

Almanac

Astronomy

Jul. 30, 2014 Rise Set
Actual Time 6:18 AM CDT 8:19 PM CDT
Civil Twilight 5:50 AM CDT 8:48 PM CDT
Nautical Twilight 5:15 AM CDT 9:22 PM CDT
Astronomical Twilight 4:38 AM CDT 9:59 PM CDT
Moon 9:43 AM CDT 10:11 PM CDT
Length of Visible Light 14h 57m
Length of Day
14h 01m
Tomorrow will be 1m 40s shorter.
Waxing Crescent, 13% of the Moon is Illuminated
Today
Waxing Crescent
Aug 3
First Quarter
Aug 10
Full
Aug 17
Last Quarter
Aug 25
New

Today's Extremes

State Highs State Lows

Community

WunderPhotos

Upload Photos

1,739,140 photos uploaded!

Nearby

Snow Depth

Station Depth Elevation
No new snow has been reported.

Earthquake Activity

City Distance Mag. Time & Date
No recent earthquake activity has been reported nearby.
Minimum magnitude displayed is 2.5.

Coastal Water Temperatures

Place Temperature
No Stations Reporting

Nearby Weather Stations

Station Location Temp. Dew Point Humidity Wind Precip. Elev Updated Type
RAWS COMPTON AR, Compton, AR 70 °F 66 °F 88% SSW  at  2 mph 0.00 in / hr 2365 ft 11:23 AM CDT MADIS
AJ5C - Northwest Harrison, Harrison, AR 68.0 °F 68 °F 99% ESE  at  0.0 mph 0.11 in / hr 1266 ft 12:48 PM CDT Rapid Fire
Upper Whorton Creek, Huntsville, AR 69.1 °F 65 °F 86% North  at  0.0 mph 0.06 in / hr 1566 ft 12:48 PM CDT Rapid Fire
Parthenon AR, Parthenon, AR 70.3 °F 68 °F 91% SE  at  2.0 mph 0.05 in / hr 1119 ft 12:33 PM CDT Normal

Show More Stations Show Fewer Stations